Time;durP1;ratioP1;P1;durP2;ratioP2;P2;SDS_P1;SDS_P2;PMS_P1;PMS_P2;Temp;Humidity;BMP_temperature;BMP_pressure;BME280_temperature;BME280_humidity;BME280_pressure;Samples;Min_cycle;Max_cycle;Signal;HPM_P1;HPM_P2
2022/09/24 00:01:44;;;;;;;2.13;2.03;;;9.00;99.90;;;;;;480480;247;27946;-70
2022/09/24 00:03:45;;;;;;;2.77;2.57;;;9.00;99.90;;;;;;480498;247;27648;-72
2022/09/24 00:05:46;;;;;;;2.33;2.23;;;9.00;99.90;;;;;;480484;247;27975;-69
2022/09/24 00:07:47;;;;;;;2.10;2.00;;;9.00;99.90;;;;;;480437;247;27737;-71
2022/09/24 00:09:48;;;;;;;2.60;2.40;;;9.00;99.90;;;;;;480452;247;27851;-68
2022/09/24 00:11:52;;;;;;;2.13;2.03;;;9.00;99.90;;;;;;480490;247;27537;-68
2022/09/24 00:13:51;;;;;;;2.43;2.30;;;9.00;99.90;;;;;;480385;247;28485;-70
2022/09/24 00:15:52;;;;;;;2.60;2.27;;;9.00;99.90;;;;;;480480;247;27898;-68
2022/09/24 00:17:53;;;;;;;2.50;2.30;;;9.00;99.90;;;;;;480451;247;28095;-69
2022/09/24 00:19:55;;;;;;;2.67;2.30;;;9.00;99.90;;;;;;480519;247;28207;-69
2022/09/24 00:21:56;;;;;;;2.10;2.00;;;9.00;99.90;;;;;;480492;247;28424;-69
2022/09/24 00:23:57;;;;;;;2.23;2.10;;;9.00;99.90;;;;;;480513;247;28454;-73
2022/09/24 00:28:18;;;;;;;2.20;2.10;;;9.00;99.90;;;;;;480513;247;28036;-67
2022/09/24 00:30:19;;;;;;;2.13;2.03;;;9.00;99.90;;;;;;480519;247;27627;-72
2022/09/24 00:32:22;;;;;;;2.47;2.27;;;9.00;99.90;;;;;;480545;247;27488;-69
2022/09/24 00:34:22;;;;;;;2.10;2.00;;;8.90;99.90;;;;;;483460;243;28026;-69
2022/09/24 00:36:23;;;;;;;2.37;2.27;;;8.90;99.90;;;;;;488433;243;27984;-68
2022/09/24 00:38:24;;;;;;;2.80;2.60;;;8.90;99.90;;;;;;488486;243;28025;-70
2022/09/24 00:40:26;;;;;;;2.13;2.03;;;8.80;99.90;;;;;;488490;243;27861;-72
2022/09/24 00:44:33;;;;;;;2.30;2.17;;;8.80;99.90;;;;;;493813;240;27725;-68
2022/09/24 00:46:34;;;;;;;2.10;2.00;;;8.80;99.90;;;;;;495708;240;27853;-67
2022/09/24 00:48:36;;;;;;;2.27;2.17;;;8.80;99.90;;;;;;495811;240;27989;-68
2022/09/24 00:50:37;;;;;;;2.50;2.30;;;8.70;99.90;;;;;;495424;239;27673;-69
2022/09/24 00:52:38;;;;;;;2.20;2.10;;;8.70;99.90;;;;;;495419;240;28024;-70
2022/09/24 00:54:41;;;;;;;2.00;1.90;;;8.60;99.90;;;;;;495419;240;28328;-68
2022/09/24 00:56:41;;;;;;;2.10;2.00;;;8.60;99.90;;;;;;495137;240;28314;-69
2022/09/24 00:58:42;;;;;;;2.13;1.90;;;8.50;99.90;;;;;;495421;240;29184;-68
2022/09/24 01:00:43;;;;;;;2.40;2.30;;;8.50;99.90;;;;;;495432;240;28474;-68
2022/09/24 01:02:44;;;;;;;2.87;2.60;;;8.50;99.90;;;;;;495423;240;28188;-70
2022/09/24 01:04:47;;;;;;;3.00;2.80;;;8.40;99.90;;;;;;495438;240;27817;-69
2022/09/24 01:06:47;;;;;;;2.80;2.60;;;8.30;99.90;;;;;;495208;240;27853;-69
2022/09/24 01:08:48;;;;;;;2.50;2.30;;;8.30;99.90;;;;;;495434;240;28010;-68
2022/09/24 01:10:49;;;;;;;2.80;2.60;;;8.30;99.90;;;;;;495397;240;27810;-68
2022/09/24 01:12:51;;;;;;;4.70;2.63;;;8.30;99.90;;;;;;495427;240;27973;-71
2022/09/24 01:14:52;;;;;;;3.00;2.70;;;8.30;99.90;;;;;;495407;240;27697;-68
2022/09/24 01:16:53;;;;;;;3.00;2.50;;;8.20;99.90;;;;;;495343;240;27959;-69
2022/09/24 01:18:56;;;;;;;2.60;2.40;;;8.20;99.90;;;;;;495422;240;28055;-68
2022/09/24 01:20:56;;;;;;;2.60;2.30;;;8.20;99.90;;;;;;495264;240;27907;-69
2022/09/24 01:22:57;;;;;;;2.20;2.10;;;8.10;99.90;;;;;;495424;240;27959;-69
2022/09/24 01:24:58;;;;;;;2.60;2.40;;;8.10;99.90;;;;;;495386;240;27685;-68
2022/09/24 01:26:59;;;;;;;2.80;2.60;;;8.00;99.90;;;;;;495327;240;28104;-68
2022/09/24 01:29:02;;;;;;;2.83;2.50;;;8.10;99.90;;;;;;495389;240;27930;-68
2022/09/24 01:31:02;;;;;;;2.20;2.00;;;8.00;99.90;;;;;;495247;240;27898;-68
2022/09/24 01:33:03;;;;;;;2.50;2.40;;;8.00;99.90;;;;;;495430;240;28453;-71
2022/09/24 01:35:04;;;;;;;3.07;2.43;;;8.00;99.90;;;;;;495414;240;27936;-69
2022/09/24 01:37:06;;;;;;;2.10;2.00;;;8.00;99.90;;;;;;495386;240;28313;-69
2022/09/24 01:39:07;;;;;;;2.30;2.20;;;8.00;99.90;;;;;;495402;240;28200;-69
2022/09/24 01:41:08;;;;;;;2.23;2.13;;;7.90;99.90;;;;;;495419;240;28419;-69
2022/09/24 01:43:09;;;;;;;2.60;2.40;;;7.90;99.90;;;;;;495419;240;27525;-72
2022/09/24 01:45:11;;;;;;;2.20;2.07;;;7.90;99.90;;;;;;495438;240;27918;-71
2022/09/24 01:47:13;;;;;;;2.20;2.10;;;7.80;99.90;;;;;;495260;240;27891;-71
2022/09/24 01:49:13;;;;;;;2.20;2.10;;;7.80;99.90;;;;;;495377;240;27717;-70
2022/09/24 01:51:14;;;;;;;2.47;2.30;;;7.70;99.90;;;;;;495401;240;27618;-68
2022/09/24 01:53:16;;;;;;;2.23;2.13;;;7.70;99.90;;;;;;495421;240;27831;-71
2022/09/24 01:55:17;;;;;;;2.23;2.13;;;7.70;99.90;;;;;;495414;240;27568;-68
2022/09/24 01:57:18;;;;;;;2.30;2.20;;;7.70;99.90;;;;;;495317;240;27924;-70
2022/09/24 01:59:19;;;;;;;2.33;2.20;;;7.70;99.90;;;;;;495417;240;27819;-68
2022/09/24 02:01:21;;;;;;;2.40;2.20;;;7.70;99.90;;;;;;495426;240;27695;-68
2022/09/24 02:03:22;;;;;;;2.53;2.33;;;7.70;99.90;;;;;;495433;240;27874;-72
2022/09/24 02:05:23;;;;;;;2.43;2.23;;;7.60;99.90;;;;;;495434;240;27954;-68
2022/09/24 02:07:24;;;;;;;4.97;2.23;;;7.60;99.90;;;;;;495343;240;27961;-69
2022/09/24 02:09:26;;;;;;;2.23;2.10;;;7.60;99.90;;;;;;495440;240;27972;-68
2022/09/24 02:11:27;;;;;;;2.20;2.10;;;7.60;99.90;;;;;;495388;240;28266;-68
2022/09/24 02:13:28;;;;;;;2.83;2.63;;;7.60;99.90;;;;;;495421;240;28418;-72
2022/09/24 02:15:29;;;;;;;2.50;2.30;;;7.60;99.90;;;;;;495447;240;28475;-68
2022/09/24 02:17:31;;;;;;;2.50;2.30;;;7.60;99.90;;;;;;495372;240;28589;-69
2022/09/24 02:19:32;;;;;;;2.27;2.17;;;7.50;99.90;;;;;;495424;240;28900;-68
2022/09/24 02:21:33;;;;;;;3.43;2.10;;;7.50;99.90;;;;;;495401;240;28044;-72
2022/09/24 02:23:35;;;;;;;2.63;2.43;;;7.50;99.90;;;;;;495425;240;27838;-72
2022/09/24 02:25:36;;;;;;;2.40;2.20;;;7.50;99.90;;;;;;495361;240;28021;-68
2022/09/24 02:27:37;;;;;;;2.80;2.53;;;7.40;99.90;;;;;;495271;240;27975;-69
2022/09/24 02:29:38;;;;;;;2.43;2.33;;;7.40;99.90;;;;;;495375;240;27700;-68
2022/09/24 02:31:39;;;;;;;3.17;2.90;;;7.30;99.90;;;;;;495374;240;28050;-69
2022/09/24 02:36:00;;;;;;;2.40;2.20;;;7.40;99.90;;;;;;495397;240;28425;-69
2022/09/24 02:38:03;;;;;;;3.47;2.20;;;7.40;99.90;;;;;;495316;240;28516;-68
2022/09/24 02:40:03;;;;;;;1.90;1.80;;;7.40;99.90;;;;;;495306;240;29514;-68
2022/09/24 02:42:04;;;;;;;2.00;1.90;;;7.40;99.90;;;;;;495397;240;28381;-67
2022/09/24 02:44:05;;;;;;;2.30;2.20;;;7.30;99.90;;;;;;495403;240;27808;-69
2022/09/24 02:46:08;;;;;;;1.83;1.73;;;7.30;99.90;;;;;;495188;240;27881;-70
2022/09/24 02:48:08;;;;;;;2.13;2.03;;;7.30;99.90;;;;;;494685;240;28093;-69
2022/09/24 02:50:09;;;;;;;2.13;2.00;;;7.30;99.90;;;;;;495428;240;27461;-68
2022/09/24 02:52:10;;;;;;;2.13;2.03;;;7.20;99.90;;;;;;495399;240;27949;-69
2022/09/24 02:54:11;;;;;;;1.90;1.80;;;7.20;99.90;;;;;;495410;240;28951;-72
2022/09/24 02:56:13;;;;;;;2.17;2.07;;;7.10;99.90;;;;;;495281;240;27724;-69
2022/09/24 02:58:14;;;;;;;2.50;2.00;;;7.10;99.90;;;;;;495399;240;28061;-68
2022/09/24 03:00:16;;;;;;;2.00;1.90;;;7.10;99.90;;;;;;495423;240;28571;-68
2022/09/24 03:02:16;;;;;;;2.23;1.90;;;7.10;99.90;;;;;;495357;240;27618;-69
2022/09/24 03:04:18;;;;;;;2.20;2.10;;;7.10;99.90;;;;;;482895;240;28722;-72
2022/09/24 03:06:19;;;;;;;2.37;2.17;;;7.10;99.90;;;;;;486509;244;29219;-68
2022/09/24 03:08:20;;;;;;;2.40;2.20;;;7.00;99.90;;;;;;486577;244;28946;-69
2022/09/24 03:10:21;;;;;;;3.03;2.73;;;6.90;99.90;;;;;;486564;244;28620;-68
2022/09/24 03:12:23;;;;;;;3.73;2.73;;;6.90;99.90;;;;;;486549;244;28336;-69
2022/09/24 03:14:24;;;;;;;3.03;2.40;;;7.00;99.90;;;;;;486543;244;28367;-71
2022/09/24 03:16:25;;;;;;;2.63;2.43;;;7.00;99.90;;;;;;486499;244;27405;-69
2022/09/24 03:18:26;;;;;;;2.77;2.53;;;7.10;99.90;;;;;;486542;244;28858;-69
2022/09/24 03:20:28;;;;;;;3.10;2.80;;;7.10;99.90;;;;;;486574;244;28358;-69
2022/09/24 03:22:29;;;;;;;2.90;2.60;;;7.10;99.90;;;;;;486565;244;28333;-69
2022/09/24 03:24:30;;;;;;;2.80;2.60;;;7.10;99.90;;;;;;486591;244;27457;-72
2022/09/24 03:26:32;;;;;;;4.30;2.90;;;7.20;99.90;;;;;;486481;244;27506;-69
2022/09/24 03:28:33;;;;;;;2.87;2.63;;;7.20;99.90;;;;;;486526;244;27918;-69
2022/09/24 03:32:53;;;;;;;3.03;2.67;;;7.20;99.90;;;;;;486578;244;27806;-68
2022/09/24 03:34:55;;;;;;;2.60;2.40;;;7.20;99.90;;;;;;486574;244;28801;-69
2022/09/24 03:36:56;;;;;;;3.37;2.40;;;7.20;99.90;;;;;;486468;244;27940;-68
2022/09/24 03:38:57;;;;;;;4.23;2.87;;;7.10;99.90;;;;;;486496;244;27439;-69
2022/09/24 03:40:59;;;;;;;2.77;2.40;;;7.20;99.90;;;;;;486563;244;27913;-71
2022/09/24 03:43:00;;;;;;;4.97;2.90;;;7.20;99.90;;;;;;486547;244;27882;-68
2022/09/24 03:45:01;;;;;;;4.13;2.70;;;7.20;99.90;;;;;;486583;244;27869;-69
2022/09/24 03:47:03;;;;;;;3.07;2.77;;;7.30;99.90;;;;;;486533;244;27844;-68
2022/09/24 03:49:03;;;;;;;3.40;2.80;;;7.20;99.90;;;;;;486603;244;27548;-69
2022/09/24 03:51:05;;;;;;;2.30;2.10;;;7.10;99.90;;;;;;486596;244;27796;-72
2022/09/24 03:53:06;;;;;;;3.43;2.07;;;7.20;99.90;;;;;;486586;244;27826;-68
2022/09/24 03:55:07;;;;;;;2.37;2.27;;;7.20;99.90;;;;;;486576;244;27933;-70
2022/09/24 03:57:09;;;;;;;2.73;2.13;;;7.10;99.90;;;;;;486490;244;27512;-68
2022/09/24 03:59:10;;;;;;;2.73;2.43;;;7.10;99.90;;;;;;486483;244;28053;-69
2022/09/24 04:01:11;;;;;;;3.13;2.37;;;7.00;99.90;;;;;;486517;244;28578;-71
2022/09/24 04:03:12;;;;;;;2.43;2.10;;;7.10;99.90;;;;;;486527;244;28221;-69
2022/09/24 04:05:13;;;;;;;2.55;2.30;;;7.10;99.90;;;;;;486525;244;29368;-69
2022/09/24 04:07:15;;;;;;;2.40;2.30;;;7.10;99.90;;;;;;486459;244;27497;-68
2022/09/24 04:09:16;;;;;;;2.43;2.07;;;7.10;99.90;;;;;;486502;244;27692;-68
2022/09/24 04:11:17;;;;;;;3.50;2.07;;;7.00;99.90;;;;;;486495;244;28898;-69
2022/09/24 04:13:19;;;;;;;2.20;2.10;;;7.00;99.90;;;;;;486548;244;28667;-68
2022/09/24 04:15:20;;;;;;;2.72;2.35;;;7.00;99.90;;;;;;486236;244;28091;-70
2022/09/24 04:17:21;;;;;;;2.37;2.17;;;7.10;99.90;;;;;;486191;244;27494;-68
2022/09/24 04:19:22;;;;;;;2.23;2.03;;;7.10;99.90;;;;;;486485;244;27438;-68
2022/09/24 04:21:24;;;;;;;2.73;2.27;;;7.10;99.90;;;;;;486605;244;28860;-76
2022/09/24 04:23:25;;;;;;;2.40;2.20;;;7.10;99.90;;;;;;486601;244;27979;-69
2022/09/24 04:25:26;;;;;;;2.67;2.47;;;7.10;99.90;;;;;;486563;244;29385;-70
2022/09/24 04:27:27;;;;;;;2.07;1.97;;;7.10;99.90;;;;;;486528;244;28964;-69
2022/09/24 04:29:29;;;;;;;2.33;2.13;;;7.10;99.90;;;;;;486593;244;28362;-68
2022/09/24 04:31:32;;;;;;;2.30;2.20;;;7.10;99.90;;;;;;486572;244;29406;-71
2022/09/24 04:33:31;;;;;;;2.23;2.03;;;7.00;99.90;;;;;;486471;244;27413;-68
2022/09/24 04:35:34;;;;;;;2.57;2.37;;;7.10;99.90;;;;;;486584;244;28872;-69
2022/09/24 04:37:34;;;;;;;2.58;2.37;;;7.10;99.90;;;;;;486469;244;28505;-68
2022/09/24 04:39:35;;;;;;;2.20;2.00;;;7.20;99.90;;;;;;486535;244;27521;-69
2022/09/24 04:41:36;;;;;;;2.53;2.33;;;7.30;99.90;;;;;;486589;244;27774;-71
2022/09/24 04:43:37;;;;;;;2.40;2.20;;;7.30;99.90;;;;;;470911;243;27998;-69
2022/09/24 04:45:39;;;;;;;2.17;1.98;;;7.40;99.90;;;;;;456101;258;28532;-70
2022/09/24 04:47:40;;;;;;;2.20;2.10;;;7.40;99.90;;;;;;456037;259;27536;-68
2022/09/24 04:49:44;;;;;;;2.37;2.10;;;7.40;99.90;;;;;;456088;258;29350;-69
2022/09/24 04:51:42;;;;;;;2.40;2.20;;;7.50;99.90;;;;;;456128;258;28554;-71
2022/09/24 04:53:46;;;;;;;2.80;2.57;;;7.40;99.90;;;;;;456110;258;28347;-68
2022/09/24 04:55:45;;;;;;;2.30;2.10;;;7.40;99.90;;;;;;456133;258;28546;-69
2022/09/24 04:57:46;;;;;;;2.30;2.00;;;7.40;99.90;;;;;;456071;258;28616;-68
2022/09/24 04:59:47;;;;;;;2.50;2.30;;;7.40;99.90;;;;;;456081;258;28827;-68
2022/09/24 05:01:49;;;;;;;2.20;2.00;;;7.40;99.90;;;;;;456079;258;28186;-72
2022/09/24 05:03:50;;;;;;;2.20;2.10;;;7.40;99.90;;;;;;476353;241;28015;-68
2022/09/24 05:05:51;;;;;;;2.93;1.97;;;7.50;99.90;;;;;;485142;244;27857;-69
2022/09/24 05:07:55;;;;;;;2.40;2.20;;;7.50;99.90;;;;;;485072;244;27580;-68
2022/09/24 05:09:54;;;;;;;2.30;2.20;;;7.50;99.90;;;;;;485777;245;27829;-68
2022/09/24 05:11:55;;;;;;;3.67;2.77;;;7.50;99.90;;;;;;488681;242;27893;-71
2022/09/24 05:13:56;;;;;;;2.80;2.60;;;7.50;99.90;;;;;;479829;243;27971;-68
2022/09/24 05:15:59;;;;;;;3.17;2.97;;;7.40;99.90;;;;;;486443;244;27987;-70
2022/09/24 05:17:59;;;;;;;2.90;2.60;;;7.40;99.90;;;;;;484896;245;27765;-68
2022/09/24 05:20:00;;;;;;;2.63;2.43;;;7.50;99.90;;;;;;486404;244;27967;-69
2022/09/24 05:22:01;;;;;;;2.60;2.40;;;7.50;99.90;;;;;;486447;244;28581;-72
2022/09/24 05:24:02;;;;;;;2.60;2.40;;;7.60;99.90;;;;;;481069;247;27760;-68
2022/09/24 05:28:23;;;;;;;2.50;2.30;;;7.50;99.90;;;;;;481083;247;28273;-68
2022/09/24 05:30:25;;;;;;;2.63;2.40;;;7.60;99.90;;;;;;481095;247;28113;-69
2022/09/24 05:34:42;;;;;;;2.83;2.60;;;7.70;99.90;;;;;;468953;242;28036;-69
2022/09/24 05:36:43;;;;;;;2.67;2.47;;;7.80;99.90;;;;;;476300;249;27983;-68
2022/09/24 05:38:44;;;;;;;2.40;2.20;;;7.80;99.90;;;;;;476255;249;27979;-68
2022/09/24 05:40:48;;;;;;;2.57;2.37;;;7.90;99.90;;;;;;476249;249;27764;-70
2022/09/24 05:42:50;;;;;;;2.70;2.50;;;7.90;99.90;;;;;;476184;249;27673;-69
2022/09/24 05:44:51;;;;;;;2.60;2.40;;;7.90;99.90;;;;;;476245;249;27956;-68
2022/09/24 05:46:52;;;;;;;2.07;1.97;;;7.90;99.90;;;;;;476305;249;27891;-69
2022/09/24 05:48:54;;;;;;;2.47;2.27;;;8.00;99.90;;;;;;476396;249;27797;-68
2022/09/24 05:50:55;;;;;;;3.37;2.10;;;8.00;99.90;;;;;;476355;249;27892;-68
2022/09/24 05:52:56;;;;;;;1.97;1.87;;;8.00;99.90;;;;;;476376;249;27986;-69
2022/09/24 05:54:57;;;;;;;2.47;2.30;;;8.10;99.90;;;;;;476378;249;27613;-68
2022/09/24 05:56:58;;;;;;;2.43;2.23;;;8.10;99.90;;;;;;476190;249;28017;-69
2022/09/24 05:59:03;;;;;;;2.60;2.30;;;8.10;99.90;;;;;;476368;249;28340;-72
2022/09/24 06:01:04;;;;;;;2.50;2.30;;;8.10;99.90;;;;;;476411;249;27891;-72
2022/09/24 06:03:06;;;;;;;2.23;2.03;;;8.20;99.90;;;;;;476425;249;27528;-69
2022/09/24 06:05:06;;;;;;;2.67;2.47;;;8.20;99.90;;;;;;476365;249;27922;-71
2022/09/24 06:07:08;;;;;;;2.33;2.17;;;8.20;99.90;;;;;;476251;249;27940;-68
2022/09/24 06:09:09;;;;;;;2.00;1.90;;;8.20;99.90;;;;;;476401;249;27982;-69
2022/09/24 06:11:12;;;;;;;2.63;2.43;;;8.20;99.90;;;;;;476387;249;27984;-71
2022/09/24 06:13:13;;;;;;;2.57;2.37;;;8.20;99.90;;;;;;476293;249;27861;-68
2022/09/24 06:15:13;;;;;;;2.63;2.13;;;8.20;99.90;;;;;;476324;249;27797;-69
2022/09/24 06:17:14;;;;;;;2.43;2.23;;;8.20;99.90;;;;;;476273;249;27946;-69
2022/09/24 06:19:15;;;;;;;2.90;2.40;;;8.20;99.90;;;;;;476381;249;27757;-70
2022/09/24 06:21:20;;;;;;;3.30;2.40;;;8.20;99.90;;;;;;476388;249;27876;-70
2022/09/24 06:23:21;;;;;;;2.47;2.10;;;8.30;99.90;;;;;;476316;249;28140;-69
2022/09/24 06:25:22;;;;;;;2.40;2.20;;;8.30;99.90;;;;;;476366;249;27830;-69
2022/09/24 06:27:23;;;;;;;2.27;2.07;;;8.40;99.90;;;;;;476147;249;27969;-69
2022/09/24 06:29:24;;;;;;;2.23;2.10;;;8.50;99.90;;;;;;476404;249;28031;-73
2022/09/24 06:31:26;;;;;;;2.03;1.93;;;8.50;99.90;;;;;;476384;249;27946;-69
2022/09/24 06:33:27;;;;;;;2.10;2.00;;;8.60;99.90;;;;;;476394;249;27912;-71
2022/09/24 06:35:28;;;;;;;2.70;2.37;;;8.60;99.90;;;;;;476400;249;27884;-68
2022/09/24 06:37:29;;;;;;;2.50;2.33;;;8.70;99.90;;;;;;476295;249;27915;-69
2022/09/24 06:39:31;;;;;;;2.57;2.37;;;8.80;99.90;;;;;;476380;249;27981;-72
2022/09/24 06:41:32;;;;;;;2.30;2.17;;;8.90;99.90;;;;;;476366;249;27398;-68
2022/09/24 06:43:33;;;;;;;1.80;1.70;;;9.00;99.90;;;;;;476388;249;28000;-69
2022/09/24 06:45:35;;;;;;;1.90;1.80;;;9.00;99.90;;;;;;476375;249;27794;-68
2022/09/24 06:47:36;;;;;;;2.23;2.03;;;9.10;99.90;;;;;;476194;249;28486;-69
2022/09/24 06:49:37;;;;;;;2.37;2.20;;;9.20;99.90;;;;;;476394;249;28271;-72
2022/09/24 06:51:38;;;;;;;1.93;1.83;;;9.20;99.90;;;;;;476390;249;28253;-69
2022/09/24 06:53:39;;;;;;;2.40;2.20;;;9.30;99.90;;;;;;476374;249;28341;-69
2022/09/24 06:55:41;;;;;;;2.10;2.00;;;9.40;99.90;;;;;;476381;249;28319;-69
2022/09/24 06:57:42;;;;;;;1.93;1.83;;;9.40;99.90;;;;;;476249;249;27757;-69
2022/09/24 06:59:43;;;;;;;2.13;2.03;;;9.40;99.90;;;;;;476393;249;27978;-71
2022/09/24 07:01:44;;;;;;;4.87;2.00;;;9.50;99.90;;;;;;476390;249;27673;-69
2022/09/24 07:03:46;;;;;;;2.17;2.00;;;9.60;99.90;;;;;;479673;239;28148;-69
2022/09/24 07:05:47;;;;;;;2.50;2.30;;;9.60;99.90;;;;;;486426;244;27848;-69
2022/09/24 07:07:48;;;;;;;4.90;2.67;;;9.70;99.90;;;;;;486364;244;27833;-69
2022/09/24 07:09:49;;;;;;;5.47;2.70;;;9.80;99.90;;;;;;486418;244;27769;-72
2022/09/24 07:11:51;;;;;;;3.13;2.53;;;9.90;99.90;;;;;;486428;244;27992;-69
2022/09/24 07:13:52;;;;;;;4.07;3.40;;;10.00;99.90;;;;;;486396;244;27873;-69
2022/09/24 07:15:53;;;;;;;4.70;3.00;;;10.10;99.90;;;;;;486454;244;28203;-68
2022/09/24 07:17:54;;;;;;;8.63;3.50;;;10.30;99.90;;;;;;486349;244;27860;-68
2022/09/24 07:19:56;;;;;;;4.73;2.87;;;10.50;99.90;;;;;;486424;244;27738;-71
2022/09/24 07:21:57;;;;;;;3.23;2.90;;;10.50;99.90;;;;;;486410;244;28503;-70
2022/09/24 07:23:58;;;;;;;3.57;2.80;;;10.50;99.90;;;;;;486412;244;28466;-70
2022/09/24 07:25:59;;;;;;;3.10;2.80;;;10.60;99.90;;;;;;486441;244;28560;-73
2022/09/24 07:28:01;;;;;;;5.00;3.10;;;10.60;99.90;;;;;;486363;244;27975;-69
2022/09/24 07:30:02;;;;;;;3.13;2.83;;;10.70;99.90;;;;;;486402;244;28100;-70
2022/09/24 07:32:03;;;;;;;2.50;2.30;;;10.70;99.90;;;;;;486448;244;27907;-69
2022/09/24 07:34:04;;;;;;;3.00;2.70;;;10.80;99.90;;;;;;486424;244;27933;-69
2022/09/24 07:36:09;;;;;;;2.77;2.50;;;10.80;99.90;;;;;;486380;244;28134;-72
2022/09/24 07:38:11;;;;;;;3.80;2.60;;;10.90;99.90;;;;;;486430;244;28498;-71
2022/09/24 07:40:11;;;;;;;2.50;2.33;;;10.90;99.90;;;;;;486411;244;27823;-69
2022/09/24 07:42:12;;;;;;;2.60;2.40;;;10.90;99.90;;;;;;486444;244;27862;-69
2022/09/24 07:44:14;;;;;;;2.50;2.30;;;11.00;99.90;;;;;;486419;244;28000;-69
2022/09/24 07:46:15;;;;;;;2.23;2.13;;;11.10;99.90;;;;;;486356;244;28041;-68
2022/09/24 07:48:16;;;;;;;2.40;2.20;;;11.10;99.90;;;;;;486432;244;28121;-72
2022/09/24 07:50:17;;;;;;;3.00;2.40;;;11.20;99.90;;;;;;486412;244;27981;-69
2022/09/24 07:52:19;;;;;;;2.70;2.50;;;11.20;99.90;;;;;;486423;244;28112;-69
2022/09/24 07:54:20;;;;;;;3.13;2.87;;;11.40;99.90;;;;;;486342;244;28010;-68
2022/09/24 07:56:21;;;;;;;2.70;2.47;;;11.50;99.90;;;;;;486342;244;28101;-69
2022/09/24 07:58:22;;;;;;;2.80;2.50;;;11.70;99.90;;;;;;486421;244;28624;-71
2022/09/24 08:00:24;;;;;;;2.43;2.23;;;11.80;99.90;;;;;;486424;244;28718;-69
2022/09/24 08:02:25;;;;;;;2.47;2.27;;;11.90;99.90;;;;;;486422;244;28824;-69
2022/09/24 08:04:26;;;;;;;3.73;2.77;;;11.90;99.90;;;;;;486415;244;28190;-69
2022/09/24 08:06:27;;;;;;;2.60;2.40;;;11.90;99.90;;;;;;486363;244;28406;-69
2022/09/24 08:08:29;;;;;;;3.17;2.30;;;12.00;99.90;;;;;;486432;244;28187;-72
2022/09/24 08:10:30;;;;;;;3.13;2.83;;;12.00;99.90;;;;;;486419;244;28161;-70
2022/09/24 08:12:31;;;;;;;2.83;2.63;;;12.00;99.90;;;;;;486424;244;28133;-70
2022/09/24 08:14:32;;;;;;;2.70;2.50;;;12.00;99.90;;;;;;486405;244;28116;-68
2022/09/24 08:16:34;;;;;;;3.50;2.30;;;12.00;99.90;;;;;;486361;244;28091;-69
2022/09/24 08:18:35;;;;;;;2.27;2.13;;;11.90;99.90;;;;;;486407;244;28313;-70
2022/09/24 08:20:36;;;;;;;2.30;2.20;;;11.80;99.90;;;;;;486420;244;28190;-69
2022/09/24 08:22:37;;;;;;;2.50;2.30;;;11.70;99.90;;;;;;486417;244;28783;-69
2022/09/24 08:24:39;;;;;;;1.97;1.87;;;11.60;99.90;;;;;;486428;244;28683;-72
2022/09/24 08:26:40;;;;;;;2.50;2.30;;;11.60;99.90;;;;;;486376;244;28553;-70
2022/09/24 08:28:41;;;;;;;2.63;2.43;;;11.70;99.90;;;;;;486467;244;28110;-70
2022/09/24 08:30:43;;;;;;;2.73;2.53;;;11.80;99.90;;;;;;486476;244;28160;-69
2022/09/24 08:32:44;;;;;;;2.60;2.40;;;11.80;99.90;;;;;;486458;244;28327;-69
2022/09/24 08:34:45;;;;;;;2.63;2.43;;;12.00;99.90;;;;;;486422;244;28130;-69
2022/09/24 08:36:46;;;;;;;5.90;2.67;;;12.10;99.90;;;;;;486366;244;28095;-69
2022/09/24 08:38:47;;;;;;;2.27;2.10;;;12.20;99.90;;;;;;486461;244;28225;-71
2022/09/24 08:40:49;;;;;;;2.83;2.50;;;12.20;99.90;;;;;;486360;244;28399;-69
2022/09/24 08:42:50;;;;;;;2.33;2.20;;;12.20;99.90;;;;;;486446;244;28507;-69
2022/09/24 08:47:23;;;;;;;3.10;2.20;;;12.20;99.90;;;;;;486381;244;28051;-69
2022/09/24 08:49:24;;;;;;;2.90;2.47;;;12.30;99.90;;;;;;486430;244;28216;-70
2022/09/24 08:51:25;;;;;;;2.80;2.60;;;12.30;99.90;;;;;;486449;244;28289;-69
2022/09/24 08:53:27;;;;;;;2.43;2.20;;;12.40;99.90;;;;;;486464;244;28206;-70
2022/09/24 08:55:28;;;;;;;2.90;2.63;;;12.50;99.90;;;;;;486447;244;28343;-71
2022/09/24 08:57:29;;;;;;;2.67;2.47;;;12.60;99.90;;;;;;486373;244;28500;-69
2022/09/24 08:59:30;;;;;;;2.50;2.30;;;12.70;99.90;;;;;;486439;244;28528;-70
2022/09/24 09:01:32;;;;;;;2.50;2.30;;;12.70;99.90;;;;;;486429;244;29314;-69
2022/09/24 09:03:33;;;;;;;2.80;2.60;;;12.80;99.90;;;;;;486451;244;28704;-69
2022/09/24 09:05:34;;;;;;;2.93;2.73;;;12.90;99.90;;;;;;486454;244;28545;-70
2022/09/24 09:07:35;;;;;;;2.30;2.20;;;13.20;99.90;;;;;;486398;244;28006;-69
2022/09/24 09:09:37;;;;;;;2.70;2.50;;;13.40;99.90;;;;;;486442;244;28105;-70
2022/09/24 09:11:38;;;;;;;3.20;2.90;;;13.60;99.90;;;;;;486449;244;28124;-74
2022/09/24 09:13:39;;;;;;;2.93;2.47;;;13.70;99.90;;;;;;486462;244;28221;-69
2022/09/24 09:15:40;;;;;;;2.90;2.70;;;13.80;99.90;;;;;;486403;244;28215;-70
2022/09/24 09:17:42;;;;;;;3.10;2.90;;;13.90;99.90;;;;;;486392;244;28164;-69
2022/09/24 09:19:43;;;;;;;2.60;2.40;;;14.10;99.90;;;;;;486442;244;28335;-69
2022/09/24 09:21:45;;;;;;;3.07;2.80;;;14.20;99.90;;;;;;486458;244;28341;-73
2022/09/24 09:23:45;;;;;;;2.90;2.70;;;14.40;99.90;;;;;;487686;244;28563;-69
2022/09/24 09:25:50;;;;;;;2.97;2.77;;;14.50;99.90;;;;;;487666;243;28988;-70
2022/09/24 09:27:48;;;;;;;3.30;3.00;;;14.70;99.90;;;;;;487370;244;28983;-69
2022/09/24 09:29:49;;;;;;;3.30;3.00;;;14.90;99.90;;;;;;487669;243;28627;-69
2022/09/24 09:31:50;;;;;;;3.73;3.40;;;14.90;99.90;;;;;;487617;244;28883;-72
2022/09/24 09:33:53;;;;;;;3.57;3.20;;;15.00;99.90;;;;;;487683;243;28853;-70
2022/09/24 09:35:53;;;;;;;4.50;3.33;;;15.00;99.90;;;;;;487571;244;28967;-70
2022/09/24 09:37:54;;;;;;;3.00;2.80;;;15.00;99.90;;;;;;487623;243;29308;-70
2022/09/24 09:39:55;;;;;;;3.40;3.10;;;15.00;99.90;;;;;;487647;243;29356;-70
2022/09/24 09:41:57;;;;;;;5.53;3.10;;;14.90;99.90;;;;;;487673;243;29450;-74
2022/09/24 09:43:58;;;;;;;3.97;3.67;;;14.90;99.90;;;;;;487648;244;28949;-71
2022/09/24 09:45:59;;;;;;;3.47;3.17;;;14.70;99.90;;;;;;487671;244;28950;-73
2022/09/24 09:48:03;;;;;;;4.10;3.70;;;14.70;99.90;;;;;;487629;244;28833;-70
2022/09/24 09:50:05;;;;;;;4.13;3.73;;;14.70;99.90;;;;;;487674;243;28836;-70
2022/09/24 09:52:06;;;;;;;4.77;4.33;;;14.60;99.90;;;;;;487584;243;28872;-70
2022/09/24 09:54:07;;;;;;;9.23;4.33;;;14.50;99.90;;;;;;487657;243;29232;-70
2022/09/24 09:56:08;;;;;;;4.13;3.83;;;14.50;99.90;;;;;;487585;244;28862;-69
2022/09/24 09:58:09;;;;;;;4.40;3.87;;;14.50;99.90;;;;;;487655;243;29416;-73
2022/09/24 10:00:11;;;;;;;3.87;3.37;;;14.60;99.90;;;;;;487660;243;29380;-69
2022/09/24 10:02:12;;;;;;;4.23;3.40;;;14.60;99.90;;;;;;487650;243;29347;-70
2022/09/24 10:04:13;;;;;;;3.97;3.60;;;14.60;99.90;;;;;;487486;244;28846;-71
2022/09/24 10:06:14;;;;;;;3.73;3.47;;;14.70;99.90;;;;;;487575;244;28983;-70
2022/09/24 10:08:16;;;;;;;3.30;3.10;;;14.70;99.90;;;;;;487632;243;28904;-72
2022/09/24 10:10:17;;;;;;;3.90;3.57;;;14.70;99.90;;;;;;487664;243;28974;-70
2022/09/24 10:12:22;;;;;;;5.47;3.83;;;14.90;99.90;;;;;;487664;244;28870;-71
2022/09/24 10:14:20;;;;;;;4.23;3.83;;;14.90;99.90;;;;;;487030;244;28936;-70
2022/09/24 10:16:21;;;;;;;3.60;3.30;;;15.00;99.90;;;;;;487587;243;29491;-69
2022/09/24 10:18:22;;;;;;;4.60;4.20;;;14.90;99.90;;;;;;487678;243;29356;-72
2022/09/24 10:20:26;;;;;;;3.93;3.60;;;15.10;99.90;;;;;;487669;244;29309;-70
2022/09/24 10:22:24;;;;;;;3.90;3.60;;;15.30;99.90;;;;;;487502;244;29340;-71
2022/09/24 10:24:26;;;;;;;4.33;3.93;;;15.30;99.90;;;;;;487665;243;28975;-70
2022/09/24 10:26:27;;;;;;;3.07;2.87;;;15.40;99.90;;;;;;487608;243;28874;-70
2022/09/24 10:30:48;;;;;;;4.00;3.70;;;15.60;99.90;;;;;;487640;244;28899;-72
2022/09/24 10:32:49;;;;;;;5.23;3.73;;;15.60;99.90;;;;;;487981;235;29051;-70
2022/09/24 10:34:50;;;;;;;4.40;3.30;;;15.70;99.90;;;;;;496056;239;28823;-71
2022/09/24 10:36:52;;;;;;;3.57;3.27;;;15.80;99.90;;;;;;495509;240;28776;-70
2022/09/24 10:38:53;;;;;;;4.20;3.67;;;15.90;99.90;;;;;;496057;239;28835;-70
2022/09/24 10:40:54;;;;;;;3.33;3.10;;;16.00;99.90;;;;;;495586;240;28758;-73
2022/09/24 10:42:56;;;;;;;4.00;3.70;;;16.10;99.90;;;;;;496084;239;28898;-70
2022/09/24 10:44:57;;;;;;;3.80;3.50;;;16.10;99.90;;;;;;495566;240;28737;-71
2022/09/24 10:46:58;;;;;;;3.53;3.23;;;16.10;99.90;;;;;;496059;240;29381;-70
2022/09/24 10:48:59;;;;;;;4.00;3.70;;;15.90;99.90;;;;;;495589;240;29237;-70
2022/09/24 10:51:01;;;;;;;4.93;3.53;;;15.70;99.90;;;;;;496114;239;28793;-73
2022/09/24 10:53:02;;;;;;;3.80;3.50;;;15.50;99.90;;;;;;495574;240;28699;-70
2022/09/24 10:55:03;;;;;;;3.83;3.53;;;15.20;99.90;;;;;;496000;239;28828;-71